LOAV

Vöslau Airport

Bad Vöslau, Austria
TAF LOAV 180800Z 1809/1818 33005KT 7000 FEW035 BKN100 TEMPO 1809/1811 4500 BR FEW005 BKN100
Issued Valid From Valid To
Oct-18 @ 08:00 UTC
(4 hours ago)
Oct-18 @ 09:00 UTC
(3 hours ago)
Oct-18 @ 18:00 UTC
(in 6 hours)
Oct-18 @ 09:00 to Oct-18 @ 18:00
TAF LOAV 180800Z 1809/1818 33005KT 7000 FEW035 BKN100
Wind Visibility Clouds
330° at 5 knots 7,001 meters
  • Few at 3,500' AGL
  • Broken at 10,000' AGL
Expired Click to View Oct-18 @ 09:00 to Oct-18 @ 11:00
TEMPO 1809/1811 4500 BR FEW005 BKN100
Visibility Clouds Conditions
4,506 meters
  • Few at 500' AGL
  • Broken at 10,000' AGL
  • Mist
TAF LOAV 180800Z 1809/1818 33005KT 7000 FEW035 BKN100 TEMPO 1809/1811 4500 BR FEW005 BKN100
Issued Oct-18 @ 08:00 UTC
(4 hours ago)
Valid From Oct-18 @ 09:00 UTC
(3 hours ago)
Valid To Oct-18 @ 18:00 UTC
(in 6 hours)
Oct-18 @ 09:00 - Oct-18 @ 18:00
Wind Visibility
330° at 5 knots 7,001 meters
Clouds
  • Few at 3,500' AGL
  • Broken at 10,000' AGL
Oct-18 @ 09:00 - Oct-18 @ 11:00
Clouds
  • Few at 500' AGL
  • Broken at 10,000' AGL
Conditions
  • Mist